Terminal Aerodrome Forecast
Issued by NWS

Home | Current Version | Previous Version | Text Only | Print | Product List | Glossary Off
Versions: 1 2 3 4 5 6 7 8 9 10 11 12 13 14 15 16 17 18 19

953
FTUS43 KMPX 150520
TAFRWF
TAF
KRWF 150520Z 1506/1606 27006KT 6SM -SHSN SCT030 BKN040
     FM150800 26006KT P6SM BKN030
     FM151100 25006KT P6SM OVC015
     FM151600 24007KT P6SM OVC020
     FM152000 23008KT P6SM BKN045
     FM152300 20007KT P6SM BKN060=

USA.gov is the U.S. government's official web portal to all federal, state and local government web resources and services.